Time;durP1;ratioP1;P1;durP2;ratioP2;P2;SDS_P1;SDS_P2;PMS_P1;PMS_P2;Temp;Humidity;BMP_temperature;BMP_pressure;BME280_temperature;BME280_humidity;BME280_pressure;Samples;Min_cycle;Max_cycle;Signal;HPM_P1;HPM_P2
2023/04/11 00:02:21;;;;;;;9.07;4.78;;;;;;;;;;6089040;23;20033;-82
2023/04/11 00:04:47;;;;;;;8.60;4.55;;;;;;;;;;6090395;23;20018;-82
2023/04/11 00:07:12;;;;;;;7.10;4.30;;;;;;;;;;6114809;23;20014;-82
2023/04/11 00:09:38;;;;;;;8.27;4.65;;;;;;;;;;6116616;23;20093;-83
2023/04/11 00:12:04;;;;;;;9.63;5.03;;;;;;;;;;6116843;23;20028;-83
2023/04/11 00:14:33;;;;;;;7.75;4.35;;;;;;;;;;6091682;23;20096;-83
2023/04/11 00:17:02;;;;;;;8.02;4.40;;;;;;;;;;6091089;23;20449;-83
2023/04/11 00:19:27;;;;;;;7.75;4.50;;;;;;;;;;6092472;23;20053;-83
2023/04/11 00:21:57;;;;;;;8.13;4.82;;;;;;;;;;6090771;23;20021;-83
2023/04/11 00:24:23;;;;;;;9.00;4.97;;;;;;;;;;6092539;23;20761;-83
2023/04/11 00:26:49;;;;;;;6.85;4.35;;;;;;;;;;6090969;23;20151;-83
2023/04/11 00:29:14;;;;;;;8.68;4.72;;;;;;;;;;6091758;23;20021;-81
2023/04/11 00:31:40;;;;;;;7.22;4.25;;;;;;;;;;6116581;23;20081;-83
2023/04/11 00:34:05;;;;;;;7.32;4.10;;;;;;;;;;6091175;23;20050;-82
2023/04/11 00:36:30;;;;;;;8.85;4.65;;;;;;;;;;6116665;23;20020;-83
2023/04/11 00:38:57;;;;;;;8.00;4.65;;;;;;;;;;6116305;23;20683;-83
2023/04/11 00:41:23;;;;;;;9.10;4.85;;;;;;;;;;6115948;23;20010;-83
2023/04/11 00:43:48;;;;;;;7.10;4.45;;;;;;;;;;6126547;23;20072;-82
2023/04/11 00:46:15;;;;;;;9.10;5.03;;;;;;;;;;6093992;23;20033;-81
2023/04/11 00:48:41;;;;;;;7.97;4.35;;;;;;;;;;6120486;23;20504;-82
2023/04/11 00:51:06;;;;;;;8.02;4.35;;;;;;;;;;6095124;23;20026;-82
2023/04/11 00:53:33;;;;;;;8.63;4.68;;;;;;;;;;6146187;23;20016;-82
2023/04/11 00:55:59;;;;;;;10.27;4.85;;;;;;;;;;6145800;23;20312;-83
2023/04/11 00:58:25;;;;;;;7.50;4.32;;;;;;;;;;6120586;23;20089;-82
2023/04/11 01:00:51;;;;;;;8.25;4.68;;;;;;;;;;6094345;23;20436;-82
2023/04/11 01:03:17;;;;;;;8.23;4.43;;;;;;;;;;6147043;23;20017;-81
2023/04/11 01:05:43;;;;;;;8.40;4.50;;;;;;;;;;6119213;23;20021;-82
2023/04/11 01:08:08;;;;;;;8.90;4.60;;;;;;;;;;6120080;23;20048;-82
2023/04/11 01:10:33;;;;;;;7.35;4.13;;;;;;;;;;6119990;23;20412;-82
2023/04/11 01:13:00;;;;;;;7.70;4.50;;;;;;;;;;6120071;23;20105;-82
2023/04/11 01:15:25;;;;;;;8.40;4.78;;;;;;;;;;6119628;23;20396;-82
2023/04/11 01:17:54;;;;;;;6.68;3.75;;;;;;;;;;6145652;23;20072;-82
2023/04/11 01:20:20;;;;;;;8.43;4.70;;;;;;;;;;6120254;23;20017;-82
2023/04/11 01:22:48;;;;;;;7.65;4.35;;;;;;;;;;6119961;23;20101;-83
2023/04/11 01:25:14;;;;;;;7.00;4.07;;;;;;;;;;6119791;23;20018;-83
2023/04/11 01:27:41;;;;;;;8.70;4.30;;;;;;;;;;6146063;23;20025;-82
2023/04/11 01:30:07;;;;;;;7.47;4.30;;;;;;;;;;6119900;23;20024;-82
2023/04/11 01:32:33;;;;;;;6.82;4.13;;;;;;;;;;6144436;23;20017;-82
2023/04/11 01:34:59;;;;;;;8.15;4.68;;;;;;;;;;6146165;23;20013;-82
2023/04/11 01:37:24;;;;;;;7.20;4.10;;;;;;;;;;6118291;23;20021;-82
2023/04/11 01:39:50;;;;;;;8.00;4.35;;;;;;;;;;6145899;23;20324;-82
2023/04/11 01:42:15;;;;;;;7.47;4.20;;;;;;;;;;6119767;23;20014;-82
2023/04/11 01:44:41;;;;;;;7.68;4.32;;;;;;;;;;6119119;23;20083;-81
2023/04/11 01:47:07;;;;;;;7.65;4.20;;;;;;;;;;6119620;23;20021;-80
2023/04/11 01:49:32;;;;;;;6.05;3.60;;;;;;;;;;6119223;23;20054;-80
2023/04/11 01:51:58;;;;;;;7.47;4.10;;;;;;;;;;6118827;23;20021;-80
2023/04/11 01:54:23;;;;;;;6.93;3.88;;;;;;;;;;6120313;23;20527;-83
2023/04/11 01:56:49;;;;;;;8.45;4.35;;;;;;;;;;6119328;23;20071;-83
2023/04/11 01:59:14;;;;;;;7.20;3.92;;;;;;;;;;6119707;23;20740;-83
2023/04/11 02:01:43;;;;;;;7.35;4.07;;;;;;;;;;6095139;23;20017;-82
2023/04/11 02:04:08;;;;;;;7.40;4.20;;;;;;;;;;6120526;23;20727;-82
2023/04/11 02:06:33;;;;;;;7.68;4.03;;;;;;;;;;6094298;23;20021;-82
2023/04/11 02:08:59;;;;;;;9.55;4.78;;;;;;;;;;6145154;23;20080;-81
2023/04/11 02:11:24;;;;;;;7.25;4.35;;;;;;;;;;6119264;23;20009;-81
2023/04/11 02:13:51;;;;;;;7.30;4.30;;;;;;;;;;6145407;23;20013;-81
2023/04/11 02:16:16;;;;;;;6.37;3.83;;;;;;;;;;6145616;23;20025;-81
2023/04/11 02:18:43;;;;;;;8.50;4.00;;;;;;;;;;6119845;23;20588;-80
2023/04/11 02:21:09;;;;;;;8.07;4.40;;;;;;;;;;6118661;23;20021;-84
2023/04/11 02:23:35;;;;;;;8.25;4.78;;;;;;;;;;6119527;23;20025;-84
2023/04/11 02:26:01;;;;;;;7.63;4.47;;;;;;;;;;6118612;23;20025;-84
2023/04/11 02:28:26;;;;;;;7.65;3.97;;;;;;;;;;6118793;23;20021;-83
2023/04/11 02:30:52;;;;;;;8.45;4.72;;;;;;;;;;6094784;23;20010;-82
2023/04/11 02:33:18;;;;;;;8.88;4.70;;;;;;;;;;6146066;23;20013;-83
2023/04/11 02:35:45;;;;;;;7.40;4.18;;;;;;;;;;6118262;23;20452;-83
2023/04/11 02:38:10;;;;;;;8.07;4.60;;;;;;;;;;6119437;23;20045;-82
2023/04/11 02:40:35;;;;;;;8.10;4.47;;;;;;;;;;6116947;23;20526;-83
2023/04/11 02:43:01;;;;;;;9.63;4.65;;;;;;;;;;6093390;23;20068;-83
2023/04/11 02:45:26;;;;;;;8.05;4.82;;;;;;;;;;6118110;23;20017;-83
2023/04/11 02:47:51;;;;;;;8.48;4.47;;;;;;;;;;6093309;23;20045;-83
2023/04/11 02:50:17;;;;;;;8.25;4.53;;;;;;;;;;6119551;23;20076;-83
2023/04/11 02:52:43;;;;;;;7.88;4.60;;;;;;;;;;6143623;23;20024;-83
2023/04/11 02:55:09;;;;;;;9.00;4.72;;;;;;;;;;6094191;23;20096;-83
2023/04/11 02:57:34;;;;;;;8.93;4.78;;;;;;;;;;6117942;23;20464;-83
2023/04/11 03:00:00;;;;;;;8.48;4.90;;;;;;;;;;6145343;23;20320;-83
2023/04/11 03:02:25;;;;;;;8.43;4.97;;;;;;;;;;6093739;23;20021;-83
2023/04/11 03:04:50;;;;;;;7.30;4.35;;;;;;;;;;6118811;23;20024;-84
2023/04/11 03:07:16;;;;;;;8.10;4.80;;;;;;;;;;6145167;23;20104;-83
2023/04/11 03:09:41;;;;;;;8.02;4.57;;;;;;;;;;6145666;23;20024;-83
2023/04/11 03:12:06;;;;;;;8.98;4.78;;;;;;;;;;6143981;23;20355;-82
2023/04/11 03:14:32;;;;;;;9.30;4.75;;;;;;;;;;6145275;23;20023;-83
2023/04/11 03:16:57;;;;;;;10.20;4.85;;;;;;;;;;6118729;23;20121;-83
2023/04/11 03:19:22;;;;;;;8.50;5.07;;;;;;;;;;6094348;23;20113;-82
2023/04/11 03:21:48;;;;;;;7.00;4.10;;;;;;;;;;6145252;23;20067;-82
2023/04/11 03:24:13;;;;;;;10.63;4.82;;;;;;;;;;6119404;23;20028;-83
2023/04/11 03:26:39;;;;;;;7.05;4.40;;;;;;;;;;6118656;23;20021;-83
2023/04/11 03:29:04;;;;;;;9.60;4.35;;;;;;;;;;6094891;23;20072;-82
2023/04/11 03:31:29;;;;;;;7.88;4.53;;;;;;;;;;6118013;23;20013;-82
2023/04/11 03:33:55;;;;;;;7.93;4.22;;;;;;;;;;6144959;23;20092;-81
2023/04/11 03:36:21;;;;;;;8.10;4.28;;;;;;;;;;6117992;23;20009;-82
2023/04/11 03:38:47;;;;;;;7.25;4.00;;;;;;;;;;6119664;23;20582;-82
2023/04/11 03:41:12;;;;;;;8.60;4.47;;;;;;;;;;6144779;23;20089;-82
2023/04/11 03:43:38;;;;;;;9.93;4.63;;;;;;;;;;6119445;23;20426;-82
2023/04/11 03:46:03;;;;;;;9.23;4.35;;;;;;;;;;6120364;23;20021;-82
2023/04/11 03:48:29;;;;;;;7.75;4.07;;;;;;;;;;6146462;23;20681;-82
2023/04/11 03:50:55;;;;;;;7.68;4.13;;;;;;;;;;6146022;23;20040;-82
2023/04/11 03:53:20;;;;;;;6.85;4.10;;;;;;;;;;6120733;23;20013;-78
2023/04/11 03:55:47;;;;;;;8.50;3.25;;;;;;;;;;6121427;23;20028;-77
2023/04/11 03:58:13;;;;;;;6.72;3.67;;;;;;;;;;6121271;23;20021;-77
2023/04/11 04:00:38;;;;;;;6.38;3.63;;;;;;;;;;6120613;23;20012;-77
2023/04/11 04:03:05;;;;;;;7.32;3.47;;;;;;;;;;6119962;23;20104;-77
2023/04/11 04:05:31;;;;;;;6.63;3.53;;;;;;;;;;6120693;23;20088;-76
2023/04/11 04:07:56;;;;;;;7.45;3.53;;;;;;;;;;6146205;23;20045;-77
2023/04/11 04:10:23;;;;;;;6.97;3.63;;;;;;;;;;6095017;23;20159;-78
2023/04/11 04:12:48;;;;;;;7.15;3.90;;;;;;;;;;6121490;23;20017;-78
2023/04/11 04:15:14;;;;;;;7.22;3.28;;;;;;;;;;6119981;23;20091;-78
2023/04/11 04:17:40;;;;;;;7.53;3.78;;;;;;;;;;6120128;23;21375;-77
2023/04/11 04:20:09;;;;;;;6.65;3.08;;;;;;;;;;6120039;23;20355;-77
2023/04/11 04:22:38;;;;;;;5.85;3.22;;;;;;;;;;6119942;23;20447;-77
2023/04/11 04:25:04;;;;;;;7.88;3.72;;;;;;;;;;6096455;23;20446;-77
2023/04/11 04:27:29;;;;;;;9.02;4.15;;;;;;;;;;6118789;23;20076;-77
2023/04/11 04:29:55;;;;;;;7.47;4.32;;;;;;;;;;6120476;23;20081;-77
2023/04/11 04:32:22;;;;;;;11.63;5.18;;;;;;;;;;6119555;23;20033;-79
2023/04/11 04:34:49;;;;;;;9.07;4.90;;;;;;;;;;6120384;23;20018;-78
2023/04/11 04:37:24;;;;;;;11.40;5.65;;;;;;;;;;6145974;23;20351;-78
2023/04/11 04:39:54;;;;;;;9.15;4.70;;;;;;;;;;6121469;23;20468;-76
2023/04/11 04:42:24;;;;;;;8.50;4.78;;;;;;;;;;6119023;23;20132;-77
2023/04/11 04:44:50;;;;;;;11.93;5.30;;;;;;;;;;6119524;23;20025;-77
2023/04/11 04:47:16;;;;;;;9.07;5.03;;;;;;;;;;6119789;23;20464;-77
2023/04/11 04:49:42;;;;;;;11.55;5.85;;;;;;;;;;6120405;23;20010;-76
2023/04/11 04:52:08;;;;;;;10.10;5.20;;;;;;;;;;6094692;23;20018;-77
2023/04/11 04:54:33;;;;;;;10.85;5.53;;;;;;;;;;6119662;23;20019;-77
2023/04/11 04:56:58;;;;;;;10.70;5.28;;;;;;;;;;6144972;23;20083;-77
2023/04/11 04:59:24;;;;;;;10.82;5.32;;;;;;;;;;6120218;23;20028;-77
2023/04/11 05:01:50;;;;;;;11.27;5.72;;;;;;;;;;6118548;23;20476;-78
2023/04/11 05:04:16;;;;;;;9.18;5.57;;;;;;;;;;6120846;23;20076;-77
2023/04/11 05:06:41;;;;;;;10.63;5.88;;;;;;;;;;6144801;23;20051;-78
2023/04/11 05:09:07;;;;;;;10.27;5.63;;;;;;;;;;6120159;23;20025;-77
2023/04/11 05:11:33;;;;;;;11.15;6.05;;;;;;;;;;6119609;23;20709;-77
2023/04/11 05:13:58;;;;;;;10.55;5.55;;;;;;;;;;6146101;23;20097;-77
2023/04/11 05:16:24;;;;;;;9.90;5.57;;;;;;;;;;6094587;23;20199;-77
2023/04/11 05:18:50;;;;;;;10.63;5.85;;;;;;;;;;6120476;23;20013;-77
2023/04/11 05:21:15;;;;;;;11.30;5.95;;;;;;;;;;6105393;23;20538;-77
2023/04/11 05:23:41;;;;;;;10.55;5.18;;;;;;;;;;6145506;23;20020;-77
2023/04/11 05:26:07;;;;;;;10.32;5.15;;;;;;;;;;6119620;23;20017;-77
2023/04/11 05:28:32;;;;;;;8.90;5.13;;;;;;;;;;6145675;23;20021;-78
2023/04/11 05:30:58;;;;;;;13.20;6.20;;;;;;;;;;6118812;23;20407;-77
2023/04/11 05:33:23;;;;;;;10.15;5.40;;;;;;;;;;6119856;23;20020;-77
2023/04/11 05:35:52;;;;;;;15.85;6.60;;;;;;;;;;6119522;23;20523;-77
2023/04/11 05:38:18;;;;;;;12.75;6.70;;;;;;;;;;6120010;23;20032;-77
2023/04/11 05:40:43;;;;;;;11.10;5.65;;;;;;;;;;6094490;23;20021;-77
2023/04/11 05:43:12;;;;;;;13.77;6.07;;;;;;;;;;6094728;23;20348;-78
2023/04/11 05:45:38;;;;;;;12.15;6.15;;;;;;;;;;6145272;23;20043;-78
2023/04/11 05:48:06;;;;;;;10.13;5.63;;;;;;;;;;6145245;23;20661;-77
2023/04/11 05:50:35;;;;;;;10.73;5.80;;;;;;;;;;6094600;23;20112;-77
2023/04/11 05:53:01;;;;;;;10.98;5.38;;;;;;;;;;6145119;23;20451;-78
2023/04/11 05:55:26;;;;;;;10.23;5.38;;;;;;;;;;6145086;23;20010;-77
2023/04/11 05:57:51;;;;;;;11.30;5.40;;;;;;;;;;6119529;23;20010;-77
2023/04/11 06:00:17;;;;;;;11.63;5.75;;;;;;;;;;6095341;23;20740;-78
2023/04/11 06:02:43;;;;;;;10.35;5.90;;;;;;;;;;6119117;23;20017;-77
2023/04/11 06:05:10;;;;;;;10.73;6.10;;;;;;;;;;6094279;23;20017;-78
2023/04/11 06:07:36;;;;;;;12.52;6.03;;;;;;;;;;6094922;23;20017;-78
2023/04/11 06:10:02;;;;;;;11.07;6.05;;;;;;;;;;6095586;23;20024;-77
2023/04/11 06:12:27;;;;;;;12.50;5.88;;;;;;;;;;6144528;23;20013;-77
2023/04/11 06:14:53;;;;;;;11.15;6.18;;;;;;;;;;6095764;23;20399;-78
2023/04/11 06:17:18;;;;;;;10.43;6.00;;;;;;;;;;6144811;23;20096;-77
2023/04/11 06:19:43;;;;;;;11.55;5.65;;;;;;;;;;6119550;23;20013;-77
2023/04/11 06:22:09;;;;;;;12.65;5.88;;;;;;;;;;6094458;23;20014;-77
2023/04/11 06:24:36;;;;;;;11.05;5.40;;;;;;;;;;6118677;23;20013;-77
2023/04/11 06:27:02;;;;;;;12.27;6.47;;;;;;;;;;6117635;23;20029;-77
2023/04/11 06:29:27;;;;;;;12.00;6.07;;;;;;;;;;6145765;23;20075;-77
2023/04/11 06:31:53;;;;;;;10.88;6.00;;;;;;;;;;6094288;23;20017;-77
2023/04/11 06:34:29;;;;;;;11.90;6.30;;;;;;;;;;6119582;23;20014;-77
2023/04/11 06:36:54;;;;;;;11.07;5.80;;;;;;;;;;6143964;23;20356;-77
2023/04/11 06:39:20;;;;;;;12.45;5.93;;;;;;;;;;6119840;23;20028;-77
2023/04/11 06:41:46;;;;;;;13.73;7.13;;;;;;;;;;6118964;23;20103;-77
2023/04/11 06:44:12;;;;;;;11.98;6.70;;;;;;;;;;6094846;23;20033;-77
2023/04/11 06:46:37;;;;;;;9.75;5.90;;;;;;;;;;6118303;23;20021;-77
2023/04/11 06:49:06;;;;;;;11.73;6.68;;;;;;;;;;6145058;23;20126;-77
2023/04/11 06:51:32;;;;;;;12.82;6.50;;;;;;;;;;6118979;23;20097;-77
2023/04/11 06:53:57;;;;;;;14.57;6.75;;;;;;;;;;6119486;23;20028;-76
2023/04/11 06:56:22;;;;;;;12.65;6.97;;;;;;;;;;6143965;23;20013;-77
2023/04/11 06:58:48;;;;;;;11.88;6.50;;;;;;;;;;6094820;23;20068;-77
2023/04/11 07:01:14;;;;;;;11.45;6.35;;;;;;;;;;6144468;23;20018;-77
2023/04/11 07:03:40;;;;;;;12.82;6.78;;;;;;;;;;6118790;23;20025;-77
2023/04/11 07:06:06;;;;;;;12.35;6.53;;;;;;;;;;6118662;23;20076;-77
2023/04/11 07:08:32;;;;;;;12.55;6.38;;;;;;;;;;6094374;23;20013;-78
2023/04/11 07:10:57;;;;;;;13.90;7.25;;;;;;;;;;6093956;23;20068;-77
2023/04/11 07:13:23;;;;;;;13.20;6.55;;;;;;;;;;6119267;23;20017;-78
2023/04/11 07:15:50;;;;;;;11.35;6.25;;;;;;;;;;6144038;23;20836;-77
2023/04/11 07:18:15;;;;;;;11.68;6.05;;;;;;;;;;6094634;23;20031;-77
2023/04/11 07:20:41;;;;;;;12.35;5.85;;;;;;;;;;6119717;23;20084;-77
2023/04/11 07:23:06;;;;;;;11.52;6.30;;;;;;;;;;6120796;23;20028;-77
2023/04/11 07:25:32;;;;;;;14.77;7.25;;;;;;;;;;6146361;23;20088;-77
2023/04/11 07:27:59;;;;;;;10.95;6.32;;;;;;;;;;6120534;23;20021;-77
2023/04/11 07:30:25;;;;;;;13.93;6.60;;;;;;;;;;6120689;23;20482;-77
2023/04/11 07:32:50;;;;;;;12.80;6.10;;;;;;;;;;6119407;23;20036;-79
2023/04/11 07:35:15;;;;;;;12.20;5.82;;;;;;;;;;6147148;23;20351;-78
2023/04/11 07:37:41;;;;;;;10.98;5.97;;;;;;;;;;6096179;23;20088;-76
2023/04/11 07:40:10;;;;;;;11.70;5.93;;;;;;;;;;6096421;23;20022;-77
2023/04/11 07:42:36;;;;;;;10.90;6.10;;;;;;;;;;6120182;23;20385;-76
2023/04/11 07:45:01;;;;;;;9.93;5.40;;;;;;;;;;6120242;23;20018;-77
2023/04/11 07:47:26;;;;;;;11.63;5.95;;;;;;;;;;6118592;23;20018;-76
2023/04/11 07:49:52;;;;;;;10.23;5.32;;;;;;;;;;6096349;23;20416;-78
2023/04/11 07:52:17;;;;;;;9.68;4.97;;;;;;;;;;6119348;23;20136;-76
2023/04/11 07:54:43;;;;;;;10.13;5.07;;;;;;;;;;6096988;23;20020;-77
2023/04/11 07:57:08;;;;;;;11.00;5.55;;;;;;;;;;6095184;23;20017;-76
2023/04/11 07:59:33;;;;;;;13.07;5.50;;;;;;;;;;6095393;23;20025;-75
2023/04/11 08:02:00;;;;;;;10.00;5.15;;;;;;;;;;6146038;23;20509;-75
2023/04/11 08:04:25;;;;;;;9.70;5.50;;;;;;;;;;6145857;23;20500;-75
2023/04/11 08:06:50;;;;;;;9.93;5.28;;;;;;;;;;6120032;23;20097;-76
2023/04/11 08:09:16;;;;;;;10.68;5.50;;;;;;;;;;6147242;23;20036;-75
2023/04/11 08:11:41;;;;;;;10.95;5.10;;;;;;;;;;6144563;23;20021;-76
2023/04/11 08:14:07;;;;;;;9.90;4.78;;;;;;;;;;6095900;23;20116;-74
2023/04/11 08:16:33;;;;;;;9.23;4.50;;;;;;;;;;6145678;23;20088;-75
2023/04/11 08:18:59;;;;;;;10.15;4.85;;;;;;;;;;6120217;23;20085;-74
2023/04/11 08:21:25;;;;;;;9.18;4.82;;;;;;;;;;6145995;23;20021;-77
2023/04/11 08:23:50;;;;;;;9.82;4.30;;;;;;;;;;6120708;23;20014;-77
2023/04/11 08:26:15;;;;;;;7.90;3.60;;;;;;;;;;6146196;23;20017;-78
2023/04/11 08:28:41;;;;;;;6.53;3.30;;;;;;;;;;6146392;23;20021;-77
2023/04/11 08:31:08;;;;;;;6.55;2.92;;;;;;;;;;6105786;23;20073;-78
2023/04/11 08:33:34;;;;;;;6.55;2.58;;;;;;;;;;6120833;23;20085;-77
2023/04/11 08:35:59;;;;;;;4.75;2.22;;;;;;;;;;6119978;23;20064;-77
2023/04/11 08:38:25;;;;;;;6.43;2.40;;;;;;;;;;6120154;23;20017;-78
2023/04/11 08:40:50;;;;;;;4.70;2.40;;;;;;;;;;6120700;23;20021;-78
2023/04/11 08:43:16;;;;;;;6.15;2.63;;;;;;;;;;6120341;23;20009;-77
2023/04/11 08:45:41;;;;;;;4.90;2.03;;;;;;;;;;6119508;23;20025;-77
2023/04/11 08:48:07;;;;;;;5.10;2.20;;;;;;;;;;6096151;23;20072;-76
2023/04/11 08:50:38;;;;;;;4.50;2.30;;;;;;;;;;6119642;23;20022;-77
2023/04/11 08:53:03;;;;;;;4.38;1.73;;;;;;;;;;6096235;23;20037;-77
2023/04/11 08:55:29;;;;;;;4.63;1.77;;;;;;;;;;6119315;23;20351;-76
2023/04/11 08:57:58;;;;;;;4.55;1.65;;;;;;;;;;6120091;23;20069;-77
2023/04/11 09:00:24;;;;;;;4.00;1.50;;;;;;;;;;6119152;23;20025;-78
2023/04/11 09:02:55;;;;;;;7.85;2.00;;;;;;;;;;6096040;23;20056;-78
2023/04/11 09:05:40;;;;;;;5.43;1.70;;;;;;;;;;6119595;23;20403;-80
2023/04/11 09:08:12;;;;;;;5.00;1.52;;;;;;;;;;6119960;23;20498;-76
2023/04/11 09:10:39;;;;;;;2.67;1.17;;;;;;;;;;6095277;23;20632;-76
2023/04/11 09:13:23;;;;;;;4.07;1.45;;;;;;;;;;6119104;23;20097;-76
2023/04/11 09:16:05;;;;;;;4.25;1.60;;;;;;;;;;6119430;23;20333;-76
2023/04/11 09:18:33;;;;;;;5.55;1.75;;;;;;;;;;6119775;23;20006;-77
2023/04/11 09:21:02;;;;;;;4.60;1.38;;;;;;;;;;6119660;23;20113;-77
2023/04/11 09:23:27;;;;;;;2.75;1.20;;;;;;;;;;6119767;23;20321;-76
2023/04/11 09:25:53;;;;;;;3.10;1.30;;;;;;;;;;6119073;23;20021;-77
2023/04/11 09:28:18;;;;;;;5.68;1.48;;;;;;;;;;6095302;23;20017;-77
2023/04/11 09:30:51;;;;;;;5.32;1.60;;;;;;;;;;6145214;23;20024;-77
2023/04/11 09:33:21;;;;;;;3.08;1.05;;;;;;;;;;6119455;23;20028;-76
2023/04/11 09:35:48;;;;;;;5.88;1.52;;;;;;;;;;6119750;23;20447;-77
2023/04/11 09:38:14;;;;;;;5.55;1.80;;;;;;;;;;6119339;23;20056;-76
2023/04/11 09:40:42;;;;;;;3.47;1.05;;;;;;;;;;6117807;23;20383;-76
2023/04/11 09:43:07;;;;;;;9.10;1.67;;;;;;;;;;6119183;23;20021;-76
2023/04/11 09:45:33;;;;;;;4.90;1.50;;;;;;;;;;6118153;23;20024;-77
2023/04/11 09:47:59;;;;;;;4.93;1.20;;;;;;;;;;6095561;23;20028;-76
2023/04/11 09:50:25;;;;;;;2.53;0.90;;;;;;;;;;6094552;23;20017;-76
2023/04/11 09:52:55;;;;;;;3.45;1.10;;;;;;;;;;6094636;23;20072;-77
2023/04/11 09:55:22;;;;;;;3.28;1.10;;;;;;;;;;6119979;23;20835;-77
2023/04/11 09:57:49;;;;;;;;;;;;;;;;;;6095098;23;20492;-77
2023/04/11 10:00:23;;;;;;;4.50;1.35;;;;;;;;;;6168816;23;19916;-77
2023/04/11 10:02:51;;;;;;;3.08;1.15;;;;;;;;;;6118098;23;20037;-77
2023/04/11 10:05:17;;;;;;;3.53;1.02;;;;;;;;;;6119454;23;20027;-76
2023/04/11 10:08:07;;;;;;;2.63;0.90;;;;;;;;;;6118870;23;20525;-76
2023/04/11 10:10:33;;;;;;;4.25;0.98;;;;;;;;;;6118293;23;20048;-73
2023/04/11 10:12:58;;;;;;;5.15;1.20;;;;;;;;;;6115416;23;20094;-76
2023/04/11 10:15:23;;;;;;;4.32;0.95;;;;;;;;;;6118935;23;20024;-76
2023/04/11 10:18:10;;;;;;;3.47;1.00;;;;;;;;;;6145921;23;20025;-84
2023/04/11 10:20:39;;;;;;;6.50;0.97;;;;;;;;;;6143443;23;20021;-84
2023/04/11 10:23:05;;;;;;;3.33;0.90;;;;;;;;;;6120633;23;20307;-84
2023/04/11 10:25:59;;;;;;;2.75;1.00;;;;;;;;;;6146268;23;20478;-84
2023/04/11 10:28:33;;;;;;;4.43;1.40;;;;;;;;;;6145683;23;20097;-85
2023/04/11 10:31:01;;;;;;;4.35;1.00;;;;;;;;;;6120202;23;20364;-84
2023/04/11 10:33:47;;;;;;;2.25;0.60;;;;;;;;;;6147309;23;20037;-86
2023/04/11 10:36:12;;;;;;;3.35;0.73;;;;;;;;;;6026626;23;20449;-86
2023/04/11 10:38:50;;;;;;;5.15;0.80;;;;;;;;;;5980637;23;20031;-86
2023/04/11 10:41:21;;;;;;;3.63;1.10;;;;;;;;;;6028498;23;20022;-85
2023/04/11 10:43:47;;;;;;;2.83;0.80;;;;;;;;;;6004667;23;20159;-84
2023/04/11 10:46:31;;;;;;;2.35;0.80;;;;;;;;;;6005045;23;20099;-84
2023/04/11 10:49:00;;;;;;;3.20;0.75;;;;;;;;;;5979164;23;20038;-76
2023/04/11 10:51:27;;;;;;;2.80;0.85;;;;;;;;;;6025749;23;20026;-80
2023/04/11 10:53:58;;;;;;;2.95;0.80;;;;;;;;;;6025314;23;20094;-78
2023/04/11 10:56:41;;;;;;;4.75;0.90;;;;;;;;;;6025794;23;20021;-78
2023/04/11 10:59:09;;;;;;;2.65;0.80;;;;;;;;;;6025989;23;20031;-77
2023/04/11 11:01:36;;;;;;;4.53;0.90;;;;;;;;;;5978707;23;20103;-77
2023/04/11 11:04:03;;;;;;;2.53;0.80;;;;;;;;;;6001919;23;20074;-77
2023/04/11 11:06:28;;;;;;;5.25;1.88;;;;;;;;;;6024438;23;20439;-78
2023/04/11 11:08:54;;;;;;;4.65;1.00;;;;;;;;;;6002548;23;20026;-79
2023/04/11 11:11:19;;;;;;;3.13;0.90;;;;;;;;;;6025328;23;20336;-78
2023/04/11 11:13:52;;;;;;;2.72;0.90;;;;;;;;;;6085685;23;20458;-78
2023/04/11 11:16:25;;;;;;;3.53;0.90;;;;;;;;;;6118462;23;20053;-79
2023/04/11 11:18:52;;;;;;;2.13;0.65;;;;;;;;;;6119725;23;20511;-78
2023/04/11 11:21:20;;;;;;;4.97;1.45;;;;;;;;;;6118481;23;20456;-78
2023/04/11 11:23:57;;;;;;;2.78;0.80;;;;;;;;;;6119376;23;20492;-78
2023/04/11 11:26:34;;;;;;;3.38;0.95;;;;;;;;;;6143265;23;20088;-78
2023/04/11 11:29:00;;;;;;;1.52;0.60;;;;;;;;;;6145174;23;20018;-78
2023/04/11 11:31:44;;;;;;;1.83;0.70;;;;;;;;;;6144534;23;20017;-78
2023/04/11 11:34:10;;;;;;;2.35;0.95;;;;;;;;;;6145936;23;20033;-79
2023/04/11 11:36:41;;;;;;;2.28;0.80;;;;;;;;;;6144569;23;20056;-78
2023/04/11 11:39:07;;;;;;;2.20;0.55;;;;;;;;;;6094747;23;20021;-78
2023/04/11 11:41:33;;;;;;;2.87;0.77;;;;;;;;;;6144846;23;20037;-79
2023/04/11 11:44:02;;;;;;;2.45;0.70;;;;;;;;;;6118074;23;20048;-78
2023/04/11 11:46:34;;;;;;;2.45;0.50;;;;;;;;;;6144246;23;20650;-78
2023/04/11 11:49:02;;;;;;;1.90;0.50;;;;;;;;;;6095139;23;20451;-78
2023/04/11 11:51:45;;;;;;;2.92;0.50;;;;;;;;;;6117942;23;20014;-78
2023/04/11 11:54:22;;;;;;;2.17;0.70;;;;;;;;;;6094649;23;20053;-77
2023/04/11 11:56:53;;;;;;;2.20;0.70;;;;;;;;;;6118544;23;20456;-78
2023/04/11 11:59:27;;;;;;;1.98;0.60;;;;;;;;;;6144972;23;20252;-78
2023/04/11 12:01:53;;;;;;;3.35;0.70;;;;;;;;;;6143758;23;20460;-80
2023/04/11 12:04:19;;;;;;;3.20;0.68;;;;;;;;;;6146066;23;20096;-79
2023/04/11 12:06:44;;;;;;;2.17;0.70;;;;;;;;;;6145690;23;20339;-81
2023/04/11 12:09:11;;;;;;;2.70;0.63;;;;;;;;;;6146935;23;20021;-81
2023/04/11 12:11:40;;;;;;;1.65;0.73;;;;;;;;;;6119801;23;20538;-82
2023/04/11 12:14:07;;;;;;;1.65;0.70;;;;;;;;;;6120978;23;20486;-80
2023/04/11 12:16:33;;;;;;;1.77;0.70;;;;;;;;;;6119374;23;20017;-81
2023/04/11 12:18:59;;;;;;;2.58;0.95;;;;;;;;;;6118800;23;20036;-81
2023/04/11 12:21:25;;;;;;;3.25;0.80;;;;;;;;;;6095114;23;20013;-81
2023/04/11 12:23:54;;;;;;;2.35;0.60;;;;;;;;;;6120965;23;20020;-81
2023/04/11 12:26:20;;;;;;;2.38;0.70;;;;;;;;;;6120008;23;20021;-81
2023/04/11 12:28:46;;;;;;;2.97;0.80;;;;;;;;;;6120169;23;20010;-81
2023/04/11 12:31:12;;;;;;;1.52;0.60;;;;;;;;;;6145563;23;20017;-81
2023/04/11 12:33:38;;;;;;;1.98;0.70;;;;;;;;;;6120257;23;20451;-80
2023/04/11 12:36:06;;;;;;;2.40;0.90;;;;;;;;;;6119223;23;20044;-81
2023/04/11 12:38:32;;;;;;;2.95;0.75;;;;;;;;;;6096033;23;20009;-82
2023/04/11 12:40:57;;;;;;;1.48;0.63;;;;;;;;;;6094349;23;20095;-80
2023/04/11 12:43:23;;;;;;;1.73;0.70;;;;;;;;;;6095786;23;20178;-80
2023/04/11 12:45:48;;;;;;;2.13;0.70;;;;;;;;;;6120322;23;20021;-80
2023/04/11 12:48:16;;;;;;;2.50;0.60;;;;;;;;;;6119812;23;20017;-81
2023/04/11 12:50:41;;;;;;;2.22;0.80;;;;;;;;;;6145885;23;20406;-80
2023/04/11 12:53:07;;;;;;;2.83;0.80;;;;;;;;;;6145783;23;20076;-80
2023/04/11 12:55:32;;;;;;;2.30;0.73;;;;;;;;;;6145625;23;20387;-80
2023/04/11 12:57:58;;;;;;;2.13;0.82;;;;;;;;;;6119802;23;20481;-80
2023/04/11 13:00:24;;;;;;;2.13;0.75;;;;;;;;;;6119399;23;20024;-80
2023/04/11 13:02:49;;;;;;;1.30;0.43;;;;;;;;;;6146540;23;20024;-79
2023/04/11 13:05:15;;;;;;;1.17;0.50;;;;;;;;;;6095385;23;20742;-79
2023/04/11 13:07:41;;;;;;;2.00;0.30;;;;;;;;;;6119067;23;20074;-80
2023/04/11 13:10:07;;;;;;;1.35;0.40;;;;;;;;;;6120485;23;20663;-79
2023/04/11 13:12:38;;;;;;;1.15;0.60;;;;;;;;;;6118345;23;20063;-79
2023/04/11 13:15:05;;;;;;;1.15;0.40;;;;;;;;;;6120120;23;20009;-79
2023/04/11 13:17:30;;;;;;;0.70;0.30;;;;;;;;;;6118015;23;20053;-79
2023/04/11 13:19:56;;;;;;;0.50;0.30;;;;;;;;;;6096089;23;20459;-80
2023/04/11 13:22:21;;;;;;;1.48;0.40;;;;;;;;;;6145515;23;20017;-78
2023/04/11 13:24:46;;;;;;;2.15;0.35;;;;;;;;;;6146644;23;20400;-77
2023/04/11 13:27:12;;;;;;;1.23;0.40;;;;;;;;;;6093480;23;20013;-77
2023/04/11 13:29:38;;;;;;;1.05;0.47;;;;;;;;;;6146097;23;20858;-77
2023/04/11 13:32:05;;;;;;;1.33;0.85;;;;;;;;;;6108185;23;20415;-77
2023/04/11 13:34:30;;;;;;;3.00;1.42;;;;;;;;;;6096135;23;20399;-77
2023/04/11 13:36:56;;;;;;;1.55;0.50;;;;;;;;;;6094154;23;20018;-77
2023/04/11 13:39:21;;;;;;;2.60;0.50;;;;;;;;;;6120009;23;20018;-81
2023/04/11 13:41:47;;;;;;;1.77;0.60;;;;;;;;;;6119464;23;20024;-78
2023/04/11 13:44:12;;;;;;;1.40;0.40;;;;;;;;;;6118741;23;20017;-78
2023/04/11 13:46:37;;;;;;;0.75;0.38;;;;;;;;;;6145367;23;20020;-78
2023/04/11 13:49:04;;;;;;;1.23;0.47;;;;;;;;;;6119736;23;20021;-77
2023/04/11 13:51:50;;;;;;;2.00;0.70;;;;;;;;;;6117415;23;20020;-77
2023/04/11 13:54:16;;;;;;;1.80;0.60;;;;;;;;;;6026275;23;20011;-77
2023/04/11 13:56:41;;;;;;;1.10;0.50;;;;;;;;;;6024749;23;20019;-77
2023/04/11 13:59:06;;;;;;;1.85;0.52;;;;;;;;;;6026136;23;20027;-79
2023/04/11 14:01:32;;;;;;;1.48;0.68;;;;;;;;;;6025186;23;20016;-78
2023/04/11 14:04:03;;;;;;;1.35;0.70;;;;;;;;;;6026518;23;20454;-78
2023/04/11 14:06:29;;;;;;;2.10;0.65;;;;;;;;;;5978408;23;20026;-78
2023/04/11 14:08:54;;;;;;;2.05;0.77;;;;;;;;;;6025798;23;20082;-80
2023/04/11 14:11:20;;;;;;;1.35;0.50;;;;;;;;;;6026595;23;20019;-81
2023/04/11 14:13:45;;;;;;;1.60;0.60;;;;;;;;;;6026096;23;20047;-80
2023/04/11 14:16:11;;;;;;;3.13;0.60;;;;;;;;;;6025672;23;20068;-80
2023/04/11 14:18:36;;;;;;;2.42;0.60;;;;;;;;;;6025750;23;20358;-77
2023/04/11 14:21:04;;;;;;;1.30;0.50;;;;;;;;;;6024670;23;20159;-77
2023/04/11 14:23:29;;;;;;;;;;;;;;;;;;6002827;23;20051;-76
2023/04/11 14:25:55;;;;;;;1.70;0.73;;;;;;;;;;6001680;23;19917;-76
2023/04/11 14:28:21;;;;;;;1.63;0.60;;;;;;;;;;5979016;23;20476;-78
2023/04/11 14:30:46;;;;;;;1.65;0.50;;;;;;;;;;6061079;23;20010;-77
2023/04/11 14:33:11;;;;;;;4.28;0.70;;;;;;;;;;6144960;23;20045;-77
2023/04/11 14:35:37;;;;;;;2.00;0.60;;;;;;;;;;6094211;23;20020;-77
2023/04/11 14:38:02;;;;;;;2.53;0.70;;;;;;;;;;6145029;23;20455;-76
2023/04/11 14:40:27;;;;;;;1.58;0.68;;;;;;;;;;6118319;23;20482;-77